Time;durP1;ratioP1;P1;durP2;ratioP2;P2;SDS_P1;SDS_P2;PMS_P1;PMS_P2;Temp;Humidity;BMP_temperature;BMP_pressure;BME280_temperature;BME280_humidity;BME280_pressure;Samples;Min_cycle;Max_cycle;Signal;HPM_P1;HPM_P2
2023/01/13 00:00:48;;;;;;;7.00;5.80;;;;;;;9.00;68.99;99818.84;5115561;28;20235;-56
2023/01/13 00:03:15;;;;;;;6.43;5.13;;;;;;;8.98;69.16;99810.25;5115199;28;20271;-56
2023/01/13 00:05:42;;;;;;;6.97;5.67;;;;;;;8.98;69.48;99815.38;5114962;28;20186;-56
2023/01/13 00:08:09;;;;;;;6.83;6.00;;;;;;;8.96;69.71;99817.00;5115038;28;20197;-56
2023/01/13 00:10:37;;;;;;;5.83;5.17;;;;;;;9.00;69.45;99813.72;5115057;28;20201;-56
2023/01/13 00:13:05;;;;;;;6.87;5.73;;;;;;;9.00;69.72;99818.84;5115406;28;20263;-56
2023/01/13 00:15:32;;;;;;;8.20;5.30;;;;;;;9.02;69.77;99817.16;5114680;28;20595;-56
2023/01/13 00:17:59;;;;;;;7.50;5.77;;;;;;;9.01;69.48;99811.16;5114881;28;20271;-56
2023/01/13 00:20:27;;;;;;;6.70;5.23;;;;;;;9.02;70.01;99817.16;5114734;28;20214;-56
2023/01/13 00:22:55;;;;;;;6.43;5.13;;;;;;;9.07;69.38;99810.47;5114793;28;20182;-56
2023/01/13 00:25:21;;;;;;;5.97;4.97;;;;;;;9.06;68.93;99819.00;5114714;28;20278;-56
2023/01/13 00:27:49;;;;;;;5.20;4.33;;;;;;;8.98;68.13;99810.25;5114707;28;20186;-56
2023/01/13 00:30:17;;;;;;;7.70;4.50;;;;;;;8.93;68.87;99806.69;5114710;28;20186;-56
2023/01/13 00:32:43;;;;;;;5.60;4.63;;;;;;;8.98;69.05;99808.56;5114612;28;20197;-56
2023/01/13 00:35:10;;;;;;;5.30;4.70;;;;;;;9.00;68.11;99803.47;5114591;28;20198;-56
2023/01/13 00:37:38;;;;;;;5.07;4.57;;;;;;;8.88;68.04;99798.84;5113798;28;20190;-56
2023/01/13 00:40:06;;;;;;;5.27;4.77;;;;;;;8.96;68.42;99811.88;5105925;28;20221;-55
2023/01/13 00:45:18;;;;;;;6.60;4.50;;;;;;;8.88;68.93;99809.97;5094002;28;20205;-54
2023/01/13 00:47:45;;;;;;;5.57;4.70;;;;;;;8.91;68.45;99804.06;5093856;28;20194;-54
2023/01/13 00:50:12;;;;;;;5.83;4.93;;;;;;;8.88;68.77;99817.66;5093648;28;20194;-55
2023/01/13 00:52:39;;;;;;;5.20;4.50;;;;;;;8.86;68.59;99819.31;5093520;28;20187;-55
2023/01/13 00:55:06;;;;;;;5.87;4.87;;;;;;;8.76;69.12;99817.31;5093614;28;20290;-55
2023/01/13 00:57:34;;;;;;;5.50;5.00;;;;;;;8.79;69.09;99809.72;5093136;28;20233;-56
2023/01/13 01:00:01;;;;;;;5.97;4.80;;;;;;;8.78;69.41;99810.56;5093448;28;20222;-55
2023/01/13 01:02:29;;;;;;;6.63;5.40;;;;;;;8.74;68.92;99813.84;5093534;28;20202;-55
2023/01/13 01:04:55;;;;;;;6.50;5.23;;;;;;;8.77;68.91;99806.25;5093848;28;20191;-55
2023/01/13 01:07:22;;;;;;;5.60;4.90;;;;;;;8.76;68.85;99808.78;5093586;28;20214;-55
2023/01/13 01:09:49;;;;;;;6.07;4.93;;;;;;;8.73;68.88;99804.44;5093929;28;20198;-55
2023/01/13 01:12:16;;;;;;;5.47;4.90;;;;;;;8.74;68.36;99806.16;5093503;28;20196;-55
2023/01/13 01:14:43;;;;;;;5.93;4.77;;;;;;;8.72;68.64;99807.81;5093507;28;20592;-55
2023/01/13 01:17:10;;;;;;;6.00;5.37;;;;;;;8.78;68.14;99813.13;5093279;28;20236;-56
2023/01/13 01:19:38;;;;;;;5.50;4.80;;;;;;;8.68;68.28;99792.31;5097746;28;20754;-55
2023/01/13 01:22:05;;;;;;;4.97;4.47;;;;;;;8.77;68.30;99793.44;5112890;28;20185;-56
2023/01/13 01:24:31;;;;;;;4.87;4.37;;;;;;;8.82;67.95;99791.88;5093050;28;20646;-55
2023/01/13 01:26:58;;;;;;;5.47;4.60;;;;;;;8.84;67.32;99797.06;5093411;28;20202;-55
2023/01/13 01:29:25;;;;;;;5.77;4.80;;;;;;;8.80;67.66;99797.78;5093058;28;20680;-55
2023/01/13 01:31:52;;;;;;;5.20;4.70;;;;;;;8.78;67.55;99802.88;5092779;28;20619;-55
2023/01/13 01:34:18;;;;;;;5.17;4.40;;;;;;;8.77;67.85;99798.56;5092606;28;20183;-55
2023/01/13 01:36:47;;;;;;;5.90;5.30;;;;;;;8.82;67.71;99799.56;5092250;28;20799;-55
2023/01/13 01:39:13;;;;;;;5.67;4.83;;;;;;;8.85;67.58;99802.22;5093339;28;20473;-55
2023/01/13 01:43:57;;;;;;;6.30;5.43;;;;;;;8.74;67.60;99770.28;5112339;28;20201;-55
2023/01/13 01:44:51;;;;;;;5.93;4.90;;;;;;;8.84;67.35;99789.38;5113113;28;20222;-56
2023/01/13 01:47:18;;;;;;;6.13;4.93;;;;;;;8.86;67.35;99792.84;5113082;28;20284;-55
2023/01/13 01:49:46;;;;;;;5.30;4.80;;;;;;;8.82;67.42;99788.44;5113564;28;20198;-55
2023/01/13 01:52:18;;;;;;;4.57;4.17;;;;;;;8.82;67.43;99794.44;5112938;28;20197;-54
2023/01/13 01:54:50;;;;;;;5.07;4.57;;;;;;;8.81;67.60;99789.28;5113126;28;20182;-56
2023/01/13 01:57:23;;;;;;;6.47;4.97;;;;;;;8.80;67.30;99790.97;5113256;28;20569;-55
2023/01/13 01:59:49;;;;;;;5.23;4.67;;;;;;;8.65;67.87;99764.06;5113339;28;20236;-55
2023/01/13 02:02:17;;;;;;;5.23;4.73;;;;;;;8.73;67.75;99794.19;5107452;28;20199;-55
2023/01/13 02:04:50;;;;;;;6.80;5.13;;;;;;;8.56;67.79;99767.22;5099147;28;20201;-55
2023/01/13 02:07:22;;;;;;;4.67;4.27;;;;;;;8.68;67.87;99793.16;5112108;28;20189;-56
2023/01/13 02:09:49;;;;;;;4.40;3.77;;;;;;;8.63;67.69;99797.31;5112000;28;20190;-55
2023/01/13 02:12:32;;;;;;;7.47;4.63;;;;;;;8.62;67.95;99797.28;5112781;28;20258;-55
2023/01/13 02:15:01;;;;;;;4.57;3.97;;;;;;;8.59;68.04;99800.63;5112554;28;20199;-55
2023/01/13 02:17:40;;;;;;;4.07;3.70;;;;;;;8.62;68.43;99800.72;5112644;28;20717;-55
2023/01/13 02:20:43;;;;;;;4.50;4.10;;;;;;;8.60;67.87;99797.22;5112327;28;20622;-55
2023/01/13 02:27:05;;;;;;;4.70;4.30;;;;;;;8.68;67.73;99805.13;5112928;28;20661;-54
2023/01/13 02:32:43;;;;;;;4.30;3.57;;;;;;;8.63;68.33;99804.97;5070772;28;20196;-55
2023/01/13 02:35:18;;;;;;;4.73;4.33;;;;;;;8.58;68.15;99801.44;5112639;28;20197;-55
2023/01/13 02:37:46;;;;;;;4.67;4.20;;;;;;;8.58;68.17;99808.25;5112915;28;20185;-55
2023/01/13 02:40:21;;;;;;;4.27;3.87;;;;;;;8.58;67.88;99806.56;5112307;28;20217;-55
2023/01/13 02:45:47;;;;;;;4.90;4.13;;;;;;;8.53;68.12;99810.69;5112783;28;20193;-55
2023/01/13 02:48:16;;;;;;;6.28;4.82;;;;;;;8.47;68.08;99810.50;5104335;28;20969;-57
2023/01/13 02:50:50;;;;;;;5.57;4.53;;;;;;;8.50;68.12;99819.94;5103456;28;20200;-55
2023/01/13 02:53:22;;;;;;;4.33;3.93;;;;;;;8.35;67.85;99793.91;5112149;28;20189;-56
2023/01/13 02:55:53;;;;;;;4.43;3.70;;;;;;;8.46;68.20;99818.97;5103268;28;20215;-55
2023/01/13 02:58:24;;;;;;;5.10;4.60;;;;;;;8.48;68.47;99832.72;5098155;28;20990;-56
2023/01/13 03:00:53;;;;;;;5.50;4.17;;;;;;;8.52;68.36;99825.97;5101521;28;20229;-55
2023/01/13 03:03:20;;;;;;;4.17;3.77;;;;;;;8.38;68.30;99822.16;5091914;28;20187;-55
2023/01/13 03:05:49;;;;;;;4.50;4.10;;;;;;;8.37;68.53;99817.84;5091846;28;20195;-55
2023/01/13 03:08:33;;;;;;;4.70;4.23;;;;;;;8.35;68.75;99815.22;5101164;28;20193;-55
2023/01/13 03:11:07;;;;;;;4.33;3.87;;;;;;;8.31;68.97;99813.41;5112046;28;20673;-55
2023/01/13 03:13:55;;;;;;;4.07;3.67;;;;;;;8.34;68.95;99816.06;5112096;28;20243;-55
2023/01/13 03:16:38;;;;;;;5.00;4.17;;;;;;;8.38;68.57;99817.03;5112063;28;20188;-55
2023/01/13 03:19:25;;;;;;;6.90;4.37;;;;;;;8.26;68.84;99808.13;5112044;28;20189;-56
2023/01/13 03:21:56;;;;;;;4.13;3.70;;;;;;;8.33;68.73;99822.00;5115535;28;20194;-55
2023/01/13 03:24:30;;;;;;;4.13;3.73;;;;;;;8.29;69.09;99815.06;5115939;28;20720;-55
2023/01/13 03:27:02;;;;;;;5.03;3.90;;;;;;;8.33;68.96;99814.31;5115883;28;20196;-55
2023/01/13 03:29:35;;;;;;;5.07;4.23;;;;;;;8.32;69.01;99818.56;5116570;28;20199;-55
2023/01/13 03:32:09;;;;;;;4.53;4.13;;;;;;;8.32;68.95;99818.56;5115694;28;20193;-55
2023/01/13 03:34:43;;;;;;;4.87;4.07;;;;;;;8.32;68.97;99820.28;5115581;28;20197;-55
2023/01/13 03:37:10;;;;;;;5.43;4.70;;;;;;;8.17;69.29;99795.06;5115627;28;20229;-55
2023/01/13 03:39:43;;;;;;;5.60;4.87;;;;;;;8.33;69.84;99814.31;5115611;28;20194;-56
2023/01/13 03:42:14;;;;;;;4.90;4.40;;;;;;;8.28;69.68;99813.31;5115397;28;20664;-55
2023/01/13 03:44:45;;;;;;;5.20;4.70;;;;;;;8.28;70.29;99818.44;5115349;28;20636;-55
2023/01/13 03:47:20;;;;;;;5.00;4.50;;;;;;;8.29;70.03;99825.31;5115191;28;20208;-56
2023/01/13 03:49:53;;;;;;;5.20;4.37;;;;;;;8.25;70.32;99829.44;5095157;28;20247;-55
2023/01/13 03:52:24;;;;;;;6.20;4.83;;;;;;;8.25;70.54;99826.00;5106940;28;20194;-55
2023/01/13 03:54:55;;;;;;;7.07;5.07;;;;;;;8.10;70.84;99805.06;5115216;28;20190;-55
2023/01/13 03:57:27;;;;;;;6.20;5.20;;;;;;;8.09;70.36;99816.97;5115019;28;20218;-55
2023/01/13 03:59:58;;;;;;;5.67;4.77;;;;;;;8.07;70.59;99821.19;5115117;28;20222;-55
2023/01/13 04:02:36;;;;;;;5.73;4.43;;;;;;;8.11;71.10;99833.25;5114952;28;20193;-56
2023/01/13 04:05:07;;;;;;;5.17;4.60;;;;;;;8.12;70.60;99846.91;5115819;28;20196;-55
2023/01/13 04:07:46;;;;;;;5.93;4.93;;;;;;;8.12;70.84;99834.13;5114777;28;20187;-55
2023/01/13 04:10:16;;;;;;;6.05;5.43;;;;;;;8.20;71.30;99851.47;5113843;28;20445;-56
2023/01/13 04:13:03;;;;;;;6.73;5.87;;;;;;;8.23;71.05;99838.75;5114998;28;20193;-56
2023/01/13 04:15:34;;;;;;;6.27;4.83;;;;;;;8.25;70.88;99844.78;5114732;28;20235;-56
2023/01/13 04:18:14;;;;;;;5.60;4.93;;;;;;;8.28;70.89;99844.03;5114781;28;20192;-56
2023/01/13 04:20:42;;;;;;;5.37;4.87;;;;;;;8.28;71.21;99850.03;5114707;28;20221;-55
2023/01/13 04:23:09;;;;;;;6.37;5.20;;;;;;;8.29;71.04;99856.03;5114784;28;20193;-55
2023/01/13 04:25:36;;;;;;;6.03;5.40;;;;;;;8.08;71.67;99825.47;5114471;28;20220;-55
2023/01/13 04:28:03;;;;;;;8.30;5.50;;;;;;;8.27;71.77;99857.66;5114485;28;20651;-55
2023/01/13 04:30:30;;;;;;;6.37;5.77;;;;;;;8.30;71.74;99852.63;5114649;28;20194;-55
2023/01/13 04:32:57;;;;;;;7.43;5.80;;;;;;;8.36;71.64;99850.25;5113759;28;20591;-55
2023/01/13 04:35:25;;;;;;;8.33;5.90;;;;;;;8.44;71.51;99850.50;5114435;28;20190;-55
2023/01/13 04:37:52;;;;;;;7.23;4.80;;;;;;;8.41;71.25;99855.50;5114346;28;20257;-56
2023/01/13 04:40:19;;;;;;;8.23;5.57;;;;;;;8.36;71.37;99852.81;5114394;28;20222;-54
2023/01/13 04:42:46;;;;;;;7.00;5.27;;;;;;;8.34;71.46;99857.03;5114235;28;20655;-55
2023/01/13 04:45:13;;;;;;;8.90;6.20;;;;;;;8.40;71.57;99864.91;5114159;28;20182;-57
2023/01/13 04:47:41;;;;;;;5.70;5.13;;;;;;;8.40;71.31;99859.78;5114501;28;20190;-55
2023/01/13 04:50:10;;;;;;;6.50;5.90;;;;;;;8.43;71.51;99865.00;5113864;28;20510;-55
2023/01/13 04:52:38;;;;;;;12.37;6.23;;;;;;;8.43;71.38;99859.88;5114096;28;20269;-55
2023/01/13 04:55:05;;;;;;;8.00;5.93;;;;;;;8.45;71.76;99863.34;5113930;28;20192;-56
2023/01/13 04:57:33;;;;;;;6.73;5.77;;;;;;;8.49;71.17;99859.19;5113313;28;20221;-55
2023/01/13 05:00:00;;;;;;;7.67;6.07;;;;;;;8.47;70.88;99861.69;5112926;28;20967;-55
2023/01/13 05:02:27;;;;;;;6.13;5.53;;;;;;;7.97;70.82;99777.34;5113933;28;20468;-55
2023/01/13 05:04:54;;;;;;;6.47;5.77;;;;;;;8.51;70.92;99875.47;5113992;28;20193;-55
2023/01/13 05:07:21;;;;;;;6.07;5.43;;;;;;;8.47;71.08;99871.06;5114190;28;20192;-56
2023/01/13 05:09:49;;;;;;;6.73;6.00;;;;;;;8.50;70.91;99868.59;5113789;28;20197;-55
2023/01/13 05:17:45;;;;;;;6.90;5.60;;;;;;;8.38;71.16;99887.00;5113784;28;20194;-55
2023/01/13 05:20:13;;;;;;;6.37;5.67;;;;;;;8.43;71.27;99875.25;5113993;28;20197;-55
2023/01/13 05:25:26;;;;;;;7.50;6.00;;;;;;;8.41;71.31;99884.56;5113583;28;20249;-56
2023/01/13 05:27:55;;;;;;;11.10;6.83;;;;;;;8.46;71.56;99885.56;5113423;28;20648;-54
2023/01/13 05:30:22;;;;;;;8.37;6.93;;;;;;;8.49;71.56;99885.66;5113362;28;20198;-55
2023/01/13 05:32:49;;;;;;;7.13;6.17;;;;;;;8.49;70.93;99888.22;5113343;28;20273;-55
2023/01/13 05:35:16;;;;;;;8.17;5.50;;;;;;;8.47;71.04;99884.75;5113300;28;20193;-55
2023/01/13 05:37:43;;;;;;;6.67;5.70;;;;;;;8.45;70.80;99888.09;5113293;28;20619;-55
2023/01/13 05:43:20;;;;;;;7.87;5.80;;;;;;;8.42;71.04;99893.97;5019271;28;20722;-56
2023/01/13 05:45:48;;;;;;;12.80;6.13;;;;;;;8.54;71.16;99893.50;5113049;28;20686;-56
2023/01/13 05:48:15;;;;;;;8.00;5.67;;;;;;;8.40;70.51;99877.72;5112950;28;20245;-54
2023/01/13 05:50:42;;;;;;;6.13;4.93;;;;;;;8.51;70.17;99896.84;5112828;28;20194;-55
2023/01/13 05:53:09;;;;;;;11.90;5.93;;;;;;;8.51;70.52;99898.53;5112857;28;20242;-55
2023/01/13 05:55:38;;;;;;;6.80;5.00;;;;;;;8.19;70.49;99846.28;5112801;28;20196;-55
2023/01/13 05:58:07;;;;;;;6.63;5.13;;;;;;;8.50;70.04;99896.78;5111669;28;20287;-55
2023/01/13 06:00:34;;;;;;;6.47;5.17;;;;;;;8.55;70.13;99905.47;5112329;28;20221;-55
2023/01/13 06:03:01;;;;;;;5.90;5.30;;;;;;;8.52;69.81;99903.69;5112518;28;20210;-55
2023/01/13 06:05:28;;;;;;;5.83;5.10;;;;;;;8.58;69.69;99910.69;5112477;28;20205;-55
2023/01/13 06:07:56;;;;;;;6.47;5.30;;;;;;;8.51;69.77;99912.19;5112414;28;20212;-55
2023/01/13 06:10:23;;;;;;;9.03;5.97;;;;;;;8.50;69.86;99913.00;5094820;28;20275;-56
2023/01/13 06:12:50;;;;;;;8.33;6.30;;;;;;;8.48;69.90;99917.22;5091819;28;20208;-55
2023/01/13 06:15:18;;;;;;;5.43;4.93;;;;;;;8.46;70.02;99915.44;5106952;28;20190;-56
2023/01/13 06:17:45;;;;;;;6.10;4.80;;;;;;;8.32;69.91;99895.38;5112607;28;20190;-56
2023/01/13 06:20:13;;;;;;;7.90;5.40;;;;;;;8.44;69.81;99917.94;5112250;28;20186;-56
2023/01/13 06:22:42;;;;;;;6.67;4.73;;;;;;;8.47;69.95;99920.59;5111964;28;20186;-55
2023/01/13 06:25:13;;;;;;;9.93;6.03;;;;;;;8.48;70.04;99924.03;5111922;28;20641;-55
2023/01/13 06:27:40;;;;;;;6.33;5.47;;;;;;;8.48;70.04;99931.72;5111237;28;20194;-56
2023/01/13 06:30:08;;;;;;;6.13;5.10;;;;;;;8.47;69.80;99930.84;5111271;28;20252;-55
2023/01/13 06:32:42;;;;;;;8.43;5.67;;;;;;;8.54;69.71;99925.06;5110992;28;20198;-56
2023/01/13 06:35:13;;;;;;;8.70;5.93;;;;;;;8.57;69.54;99924.31;5111875;28;20281;-55
2023/01/13 06:37:42;;;;;;;6.00;5.27;;;;;;;8.59;69.52;99930.34;5112163;28;20251;-55
2023/01/13 06:40:12;;;;;;;6.40;5.43;;;;;;;8.57;68.98;99930.28;5112204;28;20182;-55
2023/01/13 06:45:25;;;;;;;7.57;5.47;;;;;;;8.66;68.87;99933.16;5111899;28;20529;-55
2023/01/13 06:47:55;;;;;;;5.97;5.37;;;;;;;8.69;68.90;99929.81;5112480;28;20205;-55
2023/01/13 06:50:22;;;;;;;11.73;7.90;;;;;;;8.74;68.95;99938.50;5111721;28;20430;-56
2023/01/13 06:52:49;;;;;;;9.10;7.23;;;;;;;8.85;68.73;99935.44;5111799;28;20189;-55
2023/01/13 06:55:16;;;;;;;10.43;7.13;;;;;;;8.90;68.42;99940.69;5112816;28;20665;-55
2023/01/13 06:57:50;;;;;;;9.53;6.67;;;;;;;8.90;68.73;99946.69;5115510;28;20223;-55
2023/01/13 07:00:17;;;;;;;10.30;6.53;;;;;;;8.84;68.92;99943.94;5115458;28;20500;-55
2023/01/13 07:02:44;;;;;;;6.67;5.60;;;;;;;8.84;69.39;99941.38;5115598;28;20642;-55
2023/01/13 07:05:12;;;;;;;9.20;6.37;;;;;;;8.87;69.57;99941.47;5115762;28;20573;-56
2023/01/13 07:07:40;;;;;;;9.10;5.90;;;;;;;8.87;68.95;99950.88;5115463;28;20195;-56
2023/01/13 07:10:08;;;;;;;7.00;5.77;;;;;;;8.85;69.33;99942.25;5115981;28;20198;-56
2023/01/13 07:15:17;;;;;;;7.67;6.37;;;;;;;8.80;69.89;99947.25;5115630;28;20276;-56
2023/01/13 07:15:23;;;;;;;7.77;6.90;;;;;;;8.82;70.52;99960.97;5116045;28;20261;-56
2023/01/13 07:17:50;;;;;;;11.33;7.43;;;;;;;8.87;70.44;99956.84;5115400;28;20190;-55
2023/01/13 07:20:19;;;;;;;10.50;8.10;;;;;;;8.30;70.86;99873.09;5108830;28;20198;-56
2023/01/13 07:22:46;;;;;;;10.40;7.43;;;;;;;8.78;71.26;99955.72;5111122;28;20216;-55
2023/01/13 07:25:12;;;;;;;10.37;6.77;;;;;;;8.75;71.15;99959.06;5094781;28;20573;-56
2023/01/13 07:27:39;;;;;;;10.23;7.80;;;;;;;8.84;71.29;99955.91;5111315;28;20430;-56
2023/01/13 07:30:07;;;;;;;9.77;6.97;;;;;;;8.88;71.07;99953.47;5115678;28;20186;-56
2023/01/13 07:32:34;;;;;;;8.80;7.13;;;;;;;8.98;70.55;99962.31;5115579;28;20618;-56
2023/01/13 07:35:04;;;;;;;8.87;6.87;;;;;;;8.96;70.27;99951.13;5108661;28;20197;-56
2023/01/13 07:37:33;;;;;;;8.10;6.77;;;;;;;9.00;70.47;99959.78;5097733;28;20210;-55
2023/01/13 07:40:00;;;;;;;8.93;7.73;;;;;;;8.98;70.43;99958.88;5096323;28;20206;-56
2023/01/13 07:45:12;;;;;;;12.60;8.00;;;;;;;8.99;71.03;99961.47;5115299;28;20603;-55
2023/01/13 07:47:39;;;;;;;9.57;7.83;;;;;;;9.05;71.16;99966.78;5114301;28;20269;-56
2023/01/13 07:50:08;;;;;;;15.03;8.90;;;;;;;9.05;71.70;99961.66;5100687;28;20206;-57
2023/01/13 07:52:36;;;;;;;11.40;8.73;;;;;;;9.05;72.13;99963.34;5115540;28;20690;-55
2023/01/13 07:55:03;;;;;;;13.03;9.20;;;;;;;8.98;72.04;99943.50;5114983;28;20197;-55
2023/01/13 07:57:30;;;;;;;14.43;9.47;;;;;;;9.14;72.43;99968.75;5114818;28;20314;-55
2023/01/13 07:59:56;;;;;;;11.80;8.60;;;;;;;9.13;73.29;99965.31;5114789;28;20561;-55
2023/01/13 08:02:23;;;;;;;13.07;9.53;;;;;;;9.09;74.14;99970.31;5114963;28;20214;-55
2023/01/13 08:04:50;;;;;;;13.10;9.50;;;;;;;8.98;74.73;99949.50;5114653;28;20187;-55
2023/01/13 08:07:17;;;;;;;14.37;9.80;;;;;;;9.12;74.63;99980.66;5113113;28;20190;-55
2023/01/13 08:09:45;;;;;;;15.73;9.20;;;;;;;9.11;74.79;99977.22;5114608;28;20606;-56
2023/01/13 08:14:56;;;;;;;9.47;7.73;;;;;;;9.19;73.98;99980.88;5111498;28;20188;-56
2023/01/13 08:17:23;;;;;;;10.93;7.90;;;;;;;9.23;73.58;99976.72;5114104;28;20235;-56
2023/01/13 08:19:50;;;;;;;9.07;7.57;;;;;;;9.22;72.35;99982.66;5114120;28;20198;-56
2023/01/13 08:22:16;;;;;;;10.27;8.03;;;;;;;9.27;71.95;99981.97;5115033;28;20217;-56
2023/01/13 08:24:45;;;;;;;12.73;8.43;;;;;;;9.31;71.44;99982.94;5114414;28;20198;-56
2023/01/13 08:27:12;;;;;;;12.53;8.57;;;;;;;9.27;71.81;99993.91;5108007;28;20695;-57
2023/01/13 08:29:39;;;;;;;8.60;7.40;;;;;;;9.28;71.32;99985.41;5109455;28;20192;-55
2023/01/13 08:32:06;;;;;;;13.53;8.70;;;;;;;9.37;71.16;99985.66;5113554;28;20193;-56
2023/01/13 08:34:33;;;;;;;11.23;8.40;;;;;;;9.37;70.85;99978.84;5110611;28;20668;-56
2023/01/13 08:37:00;;;;;;;16.47;9.77;;;;;;;9.40;71.18;99984.06;5110538;28;20189;-55
2023/01/13 08:39:26;;;;;;;17.33;10.60;;;;;;;9.46;72.46;99991.06;5110439;28;20637;-56
2023/01/13 08:41:54;;;;;;;17.83;13.98;;;;;;;9.30;73.20;99943.59;5112790;28;20438;-56
2023/01/13 08:44:22;;;;;;;16.83;13.23;;;;;;;9.66;72.76;99991.63;5113534;28;20186;-55
2023/01/13 08:46:49;;;;;;;17.53;12.70;;;;;;;9.69;73.71;99987.47;5113179;28;20683;-55
2023/01/13 08:49:16;;;;;;;19.73;13.80;;;;;;;9.74;73.96;99990.13;5113277;28;20273;-56
2023/01/13 08:51:44;;;;;;;25.50;14.77;;;;;;;9.78;73.90;99992.81;5113083;28;20190;-56
2023/01/13 08:54:11;;;;;;;19.33;16.20;;;;;;;9.92;74.55;99982.91;5111921;28;20434;-56
2023/01/13 08:56:38;;;;;;;24.80;15.10;;;;;;;9.87;74.47;99981.94;5112982;28;20213;-55
2023/01/13 08:59:08;;;;;;;22.47;15.80;;;;;;;9.96;75.02;99988.19;5114811;27;20214;-56
2023/01/13 09:01:38;;;;;;;27.37;20.10;;;;;;;10.07;75.11;99985.91;5116546;27;20285;-55
2023/01/13 09:04:05;;;;;;;20.63;17.00;;;;;;;10.02;76.15;99979.78;5109898;28;20293;-56
2023/01/13 09:06:32;;;;;;;20.70;15.47;;;;;;;10.09;75.63;99979.97;5115516;27;20198;-56
2023/01/13 09:09:01;;;;;;;24.93;16.10;;;;;;;10.11;75.44;99981.72;5120888;27;20182;-56
2023/01/13 09:14:22;;;;;;;21.87;16.60;;;;;;;10.28;75.53;99971.06;5121380;27;20193;-56
2023/01/13 09:16:48;;;;;;;19.03;15.33;;;;;;;10.30;74.53;99973.69;5119490;27;20265;-56
2023/01/13 09:19:15;;;;;;;18.97;14.90;;;;;;;10.33;74.06;99973.78;5122735;27;20190;-56
2023/01/13 09:21:42;;;;;;;18.43;15.10;;;;;;;10.36;73.87;99968.69;5120892;27;20209;-55
2023/01/13 09:24:09;;;;;;;19.10;14.23;;;;;;;10.37;73.59;99967.84;5123533;27;20183;-55
2023/01/13 09:26:37;;;;;;;24.43;17.47;;;;;;;10.45;73.69;99966.34;5118401;27;20187;-56
2023/01/13 09:29:04;;;;;;;24.37;17.53;;;;;;;10.34;74.28;99947.22;5114299;27;20717;-55
2023/01/13 09:31:33;;;;;;;19.93;15.83;;;;;;;10.46;73.80;99966.41;5112631;27;20182;-56
2023/01/13 09:36:44;;;;;;;18.97;13.87;;;;;;;10.48;73.04;99963.84;5111527;27;20311;-56
2023/01/13 09:39:11;;;;;;;17.17;13.13;;;;;;;10.45;72.35;99950.94;5113705;27;20194;-57
2023/01/13 09:44:42;;;;;;;18.47;14.03;;;;;;;10.58;72.10;99951.25;5077969;28;20197;-55
2023/01/13 09:47:18;;;;;;;20.53;15.27;;;;;;;10.60;71.29;99951.31;5106234;27;20190;-55
2023/01/13 09:49:45;;;;;;;20.33;15.93;;;;;;;10.62;71.35;99944.50;5109514;28;20186;-56
2023/01/13 09:52:15;;;;;;;22.37;14.37;;;;;;;10.80;71.10;99951.72;5112155;28;20205;-56
2023/01/13 09:54:44;;;;;;;30.03;16.00;;;;;;;10.53;73.42;99944.25;5112151;28;20182;-57
2023/01/13 09:57:13;;;;;;;23.17;17.60;;;;;;;10.12;75.90;99938.09;5112115;28;20218;-56
2023/01/13 09:59:40;;;;;;;24.15;18.60;;;;;;;10.22;76.72;99936.69;5112464;27;20434;-57
2023/01/13 10:02:31;;;;;;;26.43;20.83;;;;;;;10.26;76.56;99918.81;5109391;28;20217;-57
2023/01/13 10:05:06;;;;;;;20.60;16.07;;;;;;;10.45;75.42;99932.94;5110986;28;20247;-55
2023/01/13 10:07:37;;;;;;;21.57;16.20;;;;;;;10.54;75.56;99930.59;5110180;28;20227;-56
2023/01/13 10:10:12;;;;;;;19.40;14.97;;;;;;;10.34;75.51;99935.25;5111664;28;20186;-56
2023/01/13 10:15:26;;;;;;;18.47;15.80;;;;;;;9.96;78.55;99929.16;5111501;28;20185;-56
2023/01/13 10:18:02;;;;;;;25.40;17.67;;;;;;;10.08;78.03;99914.03;5111861;28;20190;-56
2023/01/13 10:20:35;;;;;;;21.33;16.70;;;;;;;10.13;78.14;99916.78;5109298;28;20189;-56
2023/01/13 10:23:14;;;;;;;21.23;16.33;;;;;;;10.18;78.08;99914.31;5111613;28;20206;-57
2023/01/13 10:25:55;;;;;;;17.90;15.50;;;;;;;10.31;77.71;99909.50;5102601;28;20204;-57
2023/01/13 10:28:24;;;;;;;24.70;17.60;;;;;;;10.49;76.81;99907.34;5110084;28;20221;-56
2023/01/13 10:30:51;;;;;;;21.03;16.43;;;;;;;10.56;76.16;99898.09;5111580;28;20239;-56
2023/01/13 10:33:23;;;;;;;27.63;16.47;;;;;;;10.67;75.15;99896.63;5112043;28;20653;-57
2023/01/13 10:35:53;;;;;;;22.03;16.57;;;;;;;10.84;74.80;99897.00;5112750;28;20216;-55
2023/01/13 10:38:22;;;;;;;20.83;16.30;;;;;;;10.61;73.59;99843.41;5109395;28;20278;-55
2023/01/13 10:40:50;;;;;;;27.60;22.75;;;;;;;10.62;74.47;99885.41;5110866;28;20516;-56
2023/01/13 10:43:17;;;;;;;36.13;29.97;;;;;;;10.76;74.55;99886.56;5109944;28;20217;-55
2023/01/13 10:45:58;;;;;;;30.33;22.20;;;;;;;10.80;73.91;99887.47;5110398;28;20577;-56
2023/01/13 10:48:38;;;;;;;22.30;16.73;;;;;;;10.83;73.25;99880.72;5111255;28;20194;-56
2023/01/13 10:51:23;;;;;;;25.77;18.90;;;;;;;10.98;73.37;99890.44;5111650;28;20194;-56
2023/01/13 10:53:59;;;;;;;27.90;19.33;;;;;;;10.73;73.74;99880.47;5111698;28;20190;-56
2023/01/13 10:56:29;;;;;;;31.60;23.50;;;;;;;10.61;74.53;99881.06;5107975;28;20190;-57
2023/01/13 10:59:17;;;;;;;26.63;18.00;;;;;;;10.45;74.45;99886.72;5091385;28;20195;-56
2023/01/13 11:01:56;;;;;;;25.30;18.03;;;;;;;10.37;74.50;99880.53;5092688;28;20209;-57
2023/01/13 11:04:31;;;;;;;27.70;17.87;;;;;;;10.48;74.77;99885.09;5091619;28;20194;-56
2023/01/13 11:06:59;;;;;;;22.67;17.93;;;;;;;10.46;75.21;99873.03;5096473;28;20668;-57
2023/01/13 11:09:28;;;;;;;31.33;18.73;;;;;;;10.37;75.57;99872.81;5107975;28;20198;-56
2023/01/13 11:11:56;;;;;;;26.10;19.73;;;;;;;10.25;76.18;99865.69;5111535;28;20198;-56
2023/01/13 11:14:42;;;;;;;25.30;18.03;;;;;;;10.38;75.58;99866.88;5113328;28;20619;-55
2023/01/13 11:17:35;;;;;;;31.10;18.90;;;;;;;10.59;74.94;99859.63;5111994;28;20278;-56
2023/01/13 11:20:15;;;;;;;36.67;17.60;;;;;;;10.74;72.77;99870.22;5112427;28;20614;-56
2023/01/13 11:22:46;;;;;;;21.67;16.87;;;;;;;10.89;72.97;99864.53;5114328;28;20300;-55
2023/01/13 11:25:19;;;;;;;26.90;17.83;;;;;;;10.97;72.11;99865.56;5112532;28;20194;-56
2023/01/13 11:27:52;;;;;;;22.30;16.52;;;;;;;10.86;72.53;99867.06;5111016;28;21008;-57
2023/01/13 11:30:28;;;;;;;23.70;16.23;;;;;;;10.71;72.67;99867.63;5111385;28;20247;-56
2023/01/13 11:33:16;;;;;;;21.80;16.53;;;;;;;10.82;73.34;99861.00;5111308;28;20226;-56
2023/01/13 11:35:51;;;;;;;19.97;15.00;;;;;;;10.89;72.19;99855.13;5111870;28;20200;-56
2023/01/13 11:38:27;;;;;;;20.23;14.47;;;;;;;10.80;71.10;99856.63;5103215;28;20190;-56
2023/01/13 11:40:57;;;;;;;22.33;14.70;;;;;;;10.59;71.78;99857.06;5109752;28;20186;-56
2023/01/13 11:43:32;;;;;;;18.63;15.03;;;;;;;10.47;72.94;99851.63;5114022;28;20210;-56
2023/01/13 11:46:00;;;;;;;24.20;16.70;;;;;;;10.59;73.53;99857.06;5112516;28;20186;-56
2023/01/13 11:48:30;;;;;;;23.63;15.80;;;;;;;10.68;73.79;99858.09;5114013;28;20186;-57
2023/01/13 11:51:03;;;;;;;22.97;14.97;;;;;;;10.81;72.85;99854.13;5112077;28;20182;-57
2023/01/13 11:53:47;;;;;;;20.13;16.13;;;;;;;10.96;72.34;99856.97;5114547;28;20241;-56
2023/01/13 11:56:33;;;;;;;21.95;18.02;;;;;;;10.59;71.40;99803.97;5113690;28;20427;-54
2023/01/13 11:59:15;;;;;;;18.10;14.30;;;;;;;11.08;70.41;99858.94;5114974;28;20236;-57
2023/01/13 12:01:55;;;;;;;21.73;15.30;;;;;;;11.15;70.03;99860.81;5115710;28;20201;-56
2023/01/13 12:04:28;;;;;;;15.07;12.57;;;;;;;11.06;69.13;99858.06;5114840;28;20186;-56
2023/01/13 12:07:11;;;;;;;15.73;12.83;;;;;;;10.81;69.55;99861.81;5113579;28;20269;-55
2023/01/13 12:09:56;;;;;;;21.13;15.00;;;;;;;10.92;71.12;99862.03;5113773;28;20259;-55
2023/01/13 12:12:35;;;;;;;21.30;13.93;;;;;;;11.13;69.62;99859.91;5092335;28;20199;-57
2023/01/13 12:15:45;;;;;;;17.10;13.00;;;;;;;11.30;67.44;99855.94;5093977;28;20189;-56
2023/01/13 12:18:24;;;;;;;17.50;13.73;;;;;;;11.30;66.82;99855.94;5106887;28;20675;-56
2023/01/13 12:21:03;;;;;;;18.27;14.03;;;;;;;11.38;67.01;99846.66;5114710;28;20190;-56
2023/01/13 12:23:35;;;;;;;16.70;13.77;;;;;;;11.44;67.70;99851.94;5114334;28;20221;-56
2023/01/13 12:26:07;;;;;;;18.37;13.70;;;;;;;11.48;66.74;99848.56;5108833;28;20609;-56
2023/01/13 12:28:44;;;;;;;16.60;13.50;;;;;;;11.47;66.19;99845.97;5114212;28;20214;-57
2023/01/13 12:31:13;;;;;;;18.70;13.57;;;;;;;11.50;66.21;99851.19;5105865;28;20735;-56
2023/01/13 12:33:52;;;;;;;16.03;13.33;;;;;;;11.54;65.06;99840.97;5093694;28;20190;-57